Time;durP1;ratioP1;P1;durP2;ratioP2;P2;SDS_P1;SDS_P2;PMS_P1;PMS_P2;Temp;Humidity;BMP_temperature;BMP_pressure;BME280_temperature;BME280_humidity;BME280_pressure;Samples;Min_cycle;Max_cycle;Signal;HPM_P1;HPM_P2
2022/01/30 00:00:06;;;;;;;;;;;;;;;-144.99;76.73;52641.72;5029681;28;20438;-59
2022/01/30 00:02:33;;;;;;;;;;;;;;;-144.99;80.68;52627.47;5030236;28;19974;-59
2022/01/30 00:04:59;;;;;;;;;;;;;;;-144.99;82.08;52670.28;5029535;28;19946;-58
2022/01/30 00:07:25;;;;;;;;;;;;;;;-144.99;83.12;52670.28;5029815;28;19951;-59
2022/01/30 00:09:52;;;;;;;;;;;;;;;-144.99;82.82;52672.31;5029332;28;19958;-60
2022/01/30 00:12:25;;;;;;;;;;;;;;;-144.99;82.30;52647.84;5029640;28;19962;-59
2022/01/30 00:14:54;;;;;;;;;;;;;;;-144.99;82.26;52635.63;5029483;28;20027;-59
2022/01/30 00:17:28;;;;;;;;;;;;;;;-144.99;81.38;52627.47;5029736;28;19961;-60
2022/01/30 00:19:58;;;;;;;;;;;;;;;-144.99;80.82;52605.03;5029241;28;20138;-59
2022/01/30 00:22:38;;;;;;;;;;;;;;;-144.99;81.46;52633.59;5029306;28;20264;-58
2022/01/30 00:25:12;;;;;;;;;;;;;;;-144.99;81.47;52627.47;5029496;28;20409;-58
2022/01/30 00:27:48;;;;;;;;;;;;;;;-144.99;80.80;52633.59;5029347;28;19957;-59
2022/01/30 00:30:15;;;;;;;;;;;;;;;-144.99;79.80;52643.78;5029379;28;20285;-59
2022/01/30 00:32:44;;;;;;;;;;;;;;;-144.99;80.79;52603.00;5029115;28;19955;-58
2022/01/30 00:35:11;;;;;;;;;;;;;;;-144.99;86.97;52611.16;5029232;28;20031;-59
2022/01/30 00:37:40;;;;;;;;;;;;;;;-144.99;90.29;52639.69;5023605;28;19964;-57
2022/01/30 00:40:08;;;;;;;;;;;;;;;-144.99;90.06;52635.63;5029436;28;20299;-58
2022/01/30 00:42:34;;;;;;;;;;;;;;;-144.99;91.64;52649.88;5029392;28;20298;-59
2022/01/30 00:45:01;;;;;;;;;;;;;;;-144.99;91.28;52664.16;5028494;28;19944;-58
2022/01/30 00:47:27;;;;;;;;;;;;;;;-144.99;91.76;52660.09;5029556;28;19959;-59
2022/01/30 00:49:57;;;;;;;;;;;;;;;-144.99;92.00;52664.16;5029023;28;19955;-57
2022/01/30 00:52:24;;;;;;;;;;;;;;;-144.99;91.75;52664.16;5032885;28;20382;-57
2022/01/30 00:54:50;;;;;;;;;;;;;;;-144.99;91.84;52674.34;5033018;28;19955;-58
2022/01/30 00:57:16;;;;;;;;;;;;;;;-144.99;90.58;52660.09;5032821;28;19945;-59
2022/01/30 00:59:43;;;;;;;;;;;;;;;-144.99;89.65;52619.31;5032707;28;20014;-59
2022/01/30 01:02:09;;;;;;;;;;;;;;;-144.99;88.31;52651.94;5033007;28;19952;-58
2022/01/30 01:04:35;;;;;;;;;;;;;;;-144.99;86.24;52627.47;5032928;28;19947;-61
2022/01/30 01:07:03;;;;;;;;;;;;;;;-144.99;85.35;52627.47;5032632;28;20359;-58
2022/01/30 01:09:36;;;;;;;;;;;;;;;-144.99;85.33;52623.38;5032471;28;19981;-60
2022/01/30 01:25:47;;;;;;;;;;;;;;;-144.99;86.83;52621.34;5032729;28;19958;-59
2022/01/30 01:28:13;;;;;;;;;;;;;;;-144.99;86.30;52643.78;5032593;28;19956;-60
2022/01/30 01:30:40;;;;;;;;;;;;;;;-144.99;84.73;52619.31;5032182;28;20514;-58
2022/01/30 01:33:06;;;;;;;;;;;;;;;-144.99;84.58;52635.63;5032457;28;20060;-60
2022/01/30 01:35:33;;;;;;;;;;;;;;;-144.99;84.66;52631.53;5032206;28;20203;-59
2022/01/30 01:38:03;;;;;;;;;;;;;;;-144.99;85.16;52647.84;5032273;28;20413;-58
2022/01/30 01:40:30;;;;;;;;;;;;;;;-144.99;85.19;52639.69;5032442;28;19945;-57
2022/01/30 01:43:00;;;;;;;;;;;;;;;-144.99;86.21;52651.94;5032337;28;19962;-59
2022/01/30 01:45:33;;;;;;;;;;;;;;;-144.99;85.77;52619.31;5032271;28;19967;-58
2022/01/30 01:48:02;;;;;;;;;;;;;;;-144.99;86.16;52656.00;5031270;28;19953;-59
2022/01/30 01:50:38;;;;;;;;;;;;;;;-144.99;86.84;52635.63;5031869;28;20072;-59
2022/01/30 01:53:10;;;;;;;;;;;;;;;-144.99;86.54;52631.53;5031914;28;20058;-59
2022/01/30 01:55:38;;;;;;;;;;;;;;;-144.99;85.72;52619.31;5032393;28;19941;-58
2022/01/30 01:58:04;;;;;;;;;;;;;;;-144.99;82.20;52643.78;5031922;28;19947;-58
2022/01/30 02:00:31;;;;;;;;;;;;;;;-144.99;79.79;52639.69;5031865;28;19947;-57
2022/01/30 02:02:57;;;;;;;;;;;;;;;-144.99;77.85;52676.38;5030716;28;19971;-60
2022/01/30 02:05:26;;;;;;;;;;;;;;;-144.99;79.97;52627.47;5031145;28;19948;-58
2022/01/30 02:10:47;;;;;;;;;;;;;;;-144.99;82.11;52664.16;5031554;28;19943;-58
2022/01/30 02:13:40;;;;;;;;;;;;;;;-144.99;82.72;52664.16;5031475;28;19956;-58
2022/01/30 02:24:28;;;;;;;;;;;;;;;-144.99;84.19;52619.31;5031274;28;19932;-58
2022/01/30 02:26:55;;;;;;;;;;;;;;;-144.99;83.61;52643.78;5031746;28;19921;-58
2022/01/30 02:29:23;;;;;;;;;;;;;;;-144.99;83.48;52639.69;5031353;28;19927;-58
2022/01/30 02:31:56;;;;;;;;;;;;;;;-144.99;82.69;52637.66;5031069;28;20493;-57
2022/01/30 02:34:25;;;;;;;;;;;;;;;-144.99;80.01;52631.53;5030747;28;20016;-58
2022/01/30 02:36:51;;;;;;;;;;;;;;;-144.99;79.51;52653.97;5024799;28;19928;-58
2022/01/30 02:39:18;;;;;;;;;;;;;;;-144.99;77.33;52627.47;5031230;28;19927;-58
2022/01/30 02:41:46;;;;;;;;;;;;;;;-144.99;76.89;52615.25;5031288;28;19921;-59
2022/01/30 02:44:18;;;;;;;;;;;;;;;-144.99;75.76;52623.38;5030873;28;20152;-58
2022/01/30 02:46:47;;;;;;;;;;;;;;;-144.99;74.65;52623.38;5030621;28;19944;-59
2022/01/30 02:49:27;;;;;;;;;;;;;;;-144.99;74.48;52619.31;5031040;28;20072;-59
2022/01/30 02:51:57;;;;;;;;;;;;;;;-144.99;74.37;52635.63;5079362;22;19927;-69
2022/01/30 02:54:23;;;;;;;;;;;;;;;-144.99;74.88;52627.47;5071375;28;19972;-70
2022/01/30 02:56:51;;;;;;;;;;;;;;;-144.99;76.32;52603.00;5059323;28;19921;-68
2022/01/30 02:59:18;;;;;;;;;;;;;;;-144.99;76.33;52611.16;5055257;28;19971;-68
2022/01/30 03:01:44;;;;;;;;;;;;;;;-144.99;76.36;52605.03;5054179;28;20004;-71
2022/01/30 03:04:11;;;;;;;;;;;;;;;-144.99;76.18;52639.69;5054083;28;19927;-69
2022/01/30 03:06:37;;;;;;;;;;;;;;;-144.99;75.55;52609.13;5053450;28;19924;-68
2022/01/30 03:09:07;;;;;;;;;;;;;;;-144.99;73.90;52631.53;5077932;28;19935;-69
2022/01/30 03:11:34;;;;;;;;;;;;;;;-144.99;72.85;52615.25;5086949;28;19943;-70
2022/01/30 03:14:06;;;;;;;;;;;;;;;-144.99;72.19;52635.63;5073402;28;19920;-68
2022/01/30 03:16:33;;;;;;;;;;;;;;;-144.99;70.94;52623.38;5073009;28;19931;-68
2022/01/30 03:19:00;;;;;;;;;;;;;;;-144.99;70.75;52625.44;5073273;28;19977;-67
2022/01/30 03:21:27;;;;;;;;;;;;;;;-144.99;70.98;52647.84;5075607;28;19923;-68
2022/01/30 03:23:58;;;;;;;;;;;;;;;-144.99;70.71;52633.59;5073162;28;19960;-69
2022/01/30 03:26:24;;;;;;;;;;;;;;;-144.99;71.63;52627.47;5059175;28;19956;-68
2022/01/30 03:28:56;;;;;;;;;;;;;;;-144.99;71.92;52631.53;5072703;28;19994;-67
2022/01/30 03:31:31;;;;;;;;;;;;;;;-144.99;72.83;52627.47;5071815;28;19989;-69
2022/01/30 03:33:57;;;;;;;;;;;;;;;-144.99;73.81;52651.94;5072528;28;19986;-68
2022/01/30 03:36:23;;;;;;;;;;;;;;;-144.99;75.05;52664.16;5071461;28;20350;-68
2022/01/30 03:38:51;;;;;;;;;;;;;;;-144.99;75.79;52617.28;5072101;28;19958;-68
2022/01/30 03:41:17;;;;;;;;;;;;;;;-144.99;76.17;52670.28;5071601;28;20001;-68
2022/01/30 03:43:44;;;;;;;;;;;;;;;-144.99;75.86;52627.47;5071486;28;19955;-68
2022/01/30 03:46:10;;;;;;;;;;;;;;;-144.99;75.37;52700.84;5052545;28;19955;-68
2022/01/30 03:48:40;;;;;;;;;;;;;;;-144.99;75.24;52631.53;5063140;28;19964;-68
2022/01/30 03:51:06;;;;;;;;;;;;;;;-144.99;74.23;52653.97;5070317;28;19945;-68
2022/01/30 03:53:32;;;;;;;;;;;;;;;-144.99;73.93;52611.16;5071684;28;20484;-69
2022/01/30 03:55:59;;;;;;;;;;;;;;;-144.99;74.20;52639.69;5052644;28;20418;-69
2022/01/30 03:58:28;;;;;;;;;;;;;;;-144.99;74.27;52605.03;5052167;28;19960;-69
2022/01/30 04:00:57;;;;;;;;;;;;;;;-144.99;74.00;52627.47;5051903;28;19969;-68
2022/01/30 04:03:23;;;;;;;;;;;;;;;-144.99;74.04;52666.19;5051167;28;19963;-68
2022/01/30 04:05:55;;;;;;;;;;;;;;;-144.99;73.84;52598.94;5051032;28;19948;-68
2022/01/30 04:08:21;;;;;;;;;;;;;;;-144.99;73.32;52607.09;5070338;28;19955;-69
2022/01/30 04:10:58;;;;;;;;;;;;;;;-144.99;73.38;52623.38;5070443;28;19939;-69
2022/01/30 04:13:24;;;;;;;;;;;;;;;-144.99;73.12;52627.47;5051032;28;19958;-68
2022/01/30 04:15:51;;;;;;;;;;;;;;;-144.99;73.75;52651.94;5050677;28;19951;-69
2022/01/30 04:18:24;;;;;;;;;;;;;;;-144.99;72.99;52647.84;5050972;28;19951;-68
2022/01/30 04:20:55;;;;;;;;;;;;;;;-144.99;72.54;52627.47;5050944;28;19949;-68
2022/01/30 04:23:27;;;;;;;;;;;;;;;-144.99;71.97;52645.81;5068007;28;19959;-68
2022/01/30 04:25:56;;;;;;;;;;;;;;;-144.99;71.08;52696.78;5072657;28;19964;-68
2022/01/30 04:28:25;;;;;;;;;;;;;;;-144.99;70.30;52635.63;5075047;28;19963;-69
2022/01/30 04:30:51;;;;;;;;;;;;;;;-144.99;69.71;52643.78;5062505;28;20499;-70
2022/01/30 04:33:36;;;;;;;;;;;;;;;-144.99;69.57;52623.38;5060910;28;19963;-69
2022/01/30 04:36:06;;;;;;;;;;;;;;;-144.99;68.71;52645.81;5059427;28;19943;-69
2022/01/30 04:38:54;;;;;;;;;;;;;;;-144.99;69.53;52680.47;5081632;28;20316;-69
2022/01/30 04:52:47;;;;;;;;;;;;;;;-144.99;72.34;52635.63;5061603;28;19968;-70
2022/01/30 04:58:13;;;;;;;;;;;;;;;-144.99;72.44;52639.69;5056475;28;19978;-70
2022/01/30 05:00:56;;;;;;;;;;;;;;;-144.99;72.34;52615.25;5066096;28;19942;-68
2022/01/30 05:03:35;;;;;;;;;;;;;;;-144.99;71.96;52639.69;5067847;28;19927;-68
2022/01/30 05:06:05;;;;;;;;;;;;;;;-144.99;72.61;52656.00;5068569;28;19978;-69
2022/01/30 05:08:33;;;;;;;;;;;;;;;-144.99;72.20;52613.19;5089284;28;19952;-69
2022/01/30 05:11:04;;;;;;;;;;;;;;;-144.99;72.49;52635.63;5091136;28;19965;-69
2022/01/30 05:13:45;;;;;;;;;;;;;;;-144.99;72.48;52641.72;5087426;28;19954;-68
2022/01/30 05:16:12;;;;;;;;;;;;;;;-144.99;72.08;52625.44;5074550;28;20343;-69
2022/01/30 05:18:39;;;;;;;;;;;;;;;-144.99;72.54;52656.00;5070759;28;20050;-69
2022/01/30 05:21:08;;;;;;;;;;;;;;;-144.99;72.51;52647.84;5057882;28;19949;-69
2022/01/30 05:23:37;;;;;;;;;;;;;;;-144.99;71.98;52621.34;5075245;28;19964;-68
2022/01/30 05:26:06;;;;;;;;;;;;;;;-144.99;71.61;52611.16;5062116;28;19965;-69
2022/01/30 05:28:40;;;;;;;;;;;;;;;-144.99;72.38;52615.25;5053890;28;19921;-69
2022/01/30 05:31:07;;;;;;;;;;;;;;;-144.99;72.39;52643.78;5055154;28;19959;-69
2022/01/30 05:33:34;;;;;;;;;;;;;;;-144.99;72.05;52656.00;5066470;28;19960;-69
2022/01/30 05:36:02;;;;;;;;;;;;;;;-144.99;72.63;52656.00;5053919;28;19962;-70
2022/01/30 05:38:31;;;;;;;;;;;;;;;-144.99;72.22;52635.63;5054170;28;19960;-69
2022/01/30 05:41:00;;;;;;;;;;;;;;;-144.99;72.79;52607.09;5054179;28;20327;-71
2022/01/30 05:43:30;;;;;;;;;;;;;;;-144.99;73.38;52639.69;5054050;28;20252;-69
2022/01/30 05:46:07;;;;;;;;;;;;;;;-144.99;73.04;52647.84;5057176;28;19939;-69
2022/01/30 05:48:37;;;;;;;;;;;;;;;-144.99;73.69;52631.53;5074052;28;19924;-68
2022/01/30 05:51:09;;;;;;;;;;;;;;;-144.99;75.56;52660.09;5080436;28;20021;-69
2022/01/30 05:53:49;;;;;;;;;;;;;;;-144.99;74.74;52603.00;5095148;28;19960;-70
2022/01/30 05:56:26;;;;;;;;;;;;;;;-144.99;75.30;52686.59;5092828;28;19940;-70
2022/01/30 05:58:52;;;;;;;;;;;;;;;-144.99;76.84;52647.84;5091673;28;19942;-72
2022/01/30 06:01:23;;;;;;;;;;;;;;;-144.99;77.62;52619.31;5090241;28;20327;-69
2022/01/30 06:03:49;;;;;;;;;;;;;;;-144.99;77.54;52627.47;5087441;28;19963;-70
2022/01/30 06:06:23;;;;;;;;;;;;;;;-144.99;78.41;52643.78;5087090;28;19932;-70
2022/01/30 06:09:01;;;;;;;;;;;;;;;-144.99;78.88;52668.22;5093763;28;20322;-70
2022/01/30 06:11:31;;;;;;;;;;;;;;;-144.99;79.71;52639.69;5095129;28;19940;-69
2022/01/30 06:13:59;;;;;;;;;;;;;;;-144.99;80.90;52664.16;5087012;28;19924;-69
2022/01/30 06:16:26;;;;;;;;;;;;;;;-144.99;81.90;52619.31;5087700;28;19928;-71
2022/01/30 06:18:52;;;;;;;;;;;;;;;-144.99;81.84;52680.47;5068228;28;20388;-72
2022/01/30 06:21:18;;;;;;;;;;;;;;;-144.99;82.35;52656.00;5074447;28;19958;-70
2022/01/30 06:23:45;;;;;;;;;;;;;;;-144.99;82.57;52656.00;5089002;28;20346;-70
2022/01/30 06:26:12;;;;;;;;;;;;;;;-144.99;83.11;52664.16;5075135;28;19951;-71
2022/01/30 06:28:40;;;;;;;;;;;;;;;-144.99;83.98;52623.38;5063244;28;19963;-71
2022/01/30 06:31:08;;;;;;;;;;;;;;;-144.99;83.33;52627.47;5069875;28;19920;-69
2022/01/30 06:33:34;;;;;;;;;;;;;;;-144.99;82.00;52645.81;5068990;28;19962;-70
2022/01/30 06:36:01;;;;;;;;;;;;;;;-144.99;79.74;52627.47;5067419;28;20286;-69
2022/01/30 06:38:27;;;;;;;;;;;;;;;-144.99;79.10;52643.78;5089068;28;19980;-69
2022/01/30 06:40:53;;;;;;;;;;;;;;;-144.99;78.18;52607.09;5097928;28;19935;-71
2022/01/30 06:43:20;;;;;;;;;;;;;;;-144.99;77.79;52643.78;5087235;28;20027;-71
2022/01/30 06:45:48;;;;;;;;;;;;;;;-144.99;77.55;52578.53;5083063;28;19920;-70
2022/01/30 06:48:16;;;;;;;;;;;;;;;-144.99;77.93;52651.94;5064504;28;19920;-71
2022/01/30 06:50:43;;;;;;;;;;;;;;;-144.99;78.25;52625.44;5067512;28;19974;-69
2022/01/30 06:53:09;;;;;;;;;;;;;;;-144.99;78.46;52643.78;5068858;28;20139;-71
2022/01/30 06:55:38;;;;;;;;;;;;;;;-144.99;78.85;52633.59;5068085;28;19920;-69
2022/01/30 06:58:05;;;;;;;;;;;;;;;-144.99;79.35;52627.47;5067938;28;19992;-71
2022/01/30 07:00:31;;;;;;;;;;;;;;;-144.99;80.06;52639.69;5067698;28;19927;-72
2022/01/30 07:03:00;;;;;;;;;;;;;;;-144.99;79.19;52617.28;5065205;28;19921;-69
2022/01/30 07:05:26;;;;;;;;;;;;;;;-144.99;79.29;52645.81;5064719;28;19924;-71
2022/01/30 07:07:53;;;;;;;;;;;;;;;-144.99;79.02;52643.78;5076349;28;20397;-71
2022/01/30 07:10:19;;;;;;;;;;;;;;;-144.99;79.42;52603.00;5095654;28;19932;-70
2022/01/30 07:12:46;;;;;;;;;;;;;;;-144.99;79.38;52656.00;5091756;28;19921;-69
2022/01/30 07:15:12;;;;;;;;;;;;;;;-144.99;79.42;52635.63;5083289;28;19920;-70
2022/01/30 07:17:39;;;;;;;;;;;;;;;-144.99;79.39;52656.00;5080237;28;19920;-69
2022/01/30 07:20:07;;;;;;;;;;;;;;;-144.99;78.77;52625.44;5076402;28;19932;-69
2022/01/30 07:22:34;;;;;;;;;;;;;;;-144.99;78.15;52660.09;5084318;28;19924;-66
2022/01/30 07:25:00;;;;;;;;;;;;;;;-144.99;77.28;52641.72;5088410;28;19925;-65
2022/01/30 07:27:27;;;;;;;;;;;;;;;-144.99;77.27;52623.38;5089086;28;19920;-65
2022/01/30 07:29:53;;;;;;;;;;;;;;;-144.99;75.10;52676.38;5083717;28;19930;-65
2022/01/30 07:32:19;;;;;;;;;;;;;;;-144.99;74.05;52660.09;5084832;28;19920;-65
2022/01/30 07:34:49;;;;;;;;;;;;;;;-144.99;73.04;52658.03;5083501;28;20015;-65
2022/01/30 07:37:17;;;;;;;;;;;;;;;-144.99;72.57;52639.69;5083501;28;20011;-66
2022/01/30 07:39:44;;;;;;;;;;;;;;;-144.99;71.32;52647.84;5082476;28;19920;-66
2022/01/30 07:42:19;;;;;;;;;;;;;;;-144.99;70.92;52615.25;5083367;28;19927;-66
2022/01/30 07:44:46;;;;;;;;;;;;;;;-144.99;70.05;52615.25;5082151;28;19928;-67
2022/01/30 07:47:12;;;;;;;;;;;;;;;-144.99;70.12;52596.88;5066390;28;19931;-66
2022/01/30 07:49:38;;;;;;;;;;;;;;;-144.99;69.30;52619.31;5091797;28;19928;-66
2022/01/30 07:52:05;;;;;;;;;;;;;;;-144.99;68.79;52637.66;5081323;28;19920;-66
2022/01/30 07:54:34;;;;;;;;;;;;;;;-144.99;68.30;52609.13;5082364;28;19924;-66
2022/01/30 07:57:00;;;;;;;;;;;;;;;-144.99;67.72;52631.53;5082531;28;20019;-66
2022/01/30 07:59:27;;;;;;;;;;;;;;;-144.99;67.22;52680.47;5082103;28;19927;-66
2022/01/30 08:01:53;;;;;;;;;;;;;;;-144.99;66.72;52639.69;5081899;28;19920;-66
2022/01/30 08:04:19;;;;;;;;;;;;;;;-144.99;65.84;52643.78;5080008;28;19924;-66
2022/01/30 08:06:46;;;;;;;;;;;;;;;-144.99;65.03;52615.25;5073170;28;19924;-70
2022/01/30 08:09:13;;;;;;;;;;;;;;;-144.99;64.84;52607.09;5082584;28;19927;-66
2022/01/30 08:11:40;;;;;;;;;;;;;;;-144.99;65.89;52633.59;5081539;28;19920;-66
2022/01/30 08:14:07;;;;;;;;;;;;;;;-144.99;64.08;52611.16;5080542;28;19955;-66
2022/01/30 08:16:33;;;;;;;;;;;;;;;-144.99;64.27;52621.34;5081981;28;19959;-66
2022/01/30 08:18:59;;;;;;;;;;;;;;;-144.99;62.24;52635.63;5075616;28;19960;-66
2022/01/30 08:21:26;;;;;;;;;;;;;;;-144.99;61.45;52664.16;5077336;28;19959;-66
2022/01/30 08:23:52;;;;;;;;;;;;;;;-144.99;60.50;52645.81;5073500;28;20393;-67
2022/01/30 08:26:19;;;;;;;;;;;;;;;-144.99;59.24;52651.94;5078910;28;19927;-66
2022/01/30 08:28:46;;;;;;;;;;;;;;;-144.99;58.24;52635.63;5085120;28;20065;-66
2022/01/30 08:31:13;;;;;;;;;;;;;;;-144.99;57.68;52582.63;5085435;28;19920;-67
2022/01/30 08:33:39;;;;;;;;;;;;;;;-144.99;57.19;52586.69;5084996;28;19924;-66
2022/01/30 08:36:06;;;;;;;;;;;;;;;-144.99;57.10;52613.19;5068370;28;19921;-66
2022/01/30 08:38:32;;;;;;;;;;;;;;;-144.99;56.36;52627.47;5089593;28;19956;-67
2022/01/30 08:40:59;;;;;;;;;;;;;;;-144.99;56.03;52623.38;5093585;28;19927;-66
2022/01/30 08:43:25;;;;;;;;;;;;;;;-144.99;56.23;52631.53;5081774;28;20011;-67
2022/01/30 08:45:53;;;;;;;;;;;;;;;-144.99;55.68;52651.94;5082666;28;19928;-66
2022/01/30 08:48:20;;;;;;;;;;;;;;;-144.99;55.86;52643.78;5080732;28;19968;-66
2022/01/30 08:50:46;;;;;;;;;;;;;;;-144.99;56.07;52639.69;5075812;28;19920;-66
2022/01/30 08:53:15;;;;;;;;;;;;;;;-144.99;56.12;52603.00;5079805;28;19926;-66
2022/01/30 08:55:45;;;;;;;;;;;;;;;-144.99;56.08;52651.94;5081699;28;19925;-66
2022/01/30 08:58:13;;;;;;;;;;;;;;;-144.99;56.83;52619.31;5081260;22;19959;-59
2022/01/30 09:00:40;;;;;;;;;;;;;;;-144.99;57.12;52598.94;5068718;28;19924;-57
2022/01/30 09:03:08;;;;;;;;;;;;;;;-144.99;57.65;52623.38;5069118;28;19920;-59
2022/01/30 09:05:35;;;;;;;;;;;;;;;-144.99;58.44;52598.94;5068797;28;19978;-58
2022/01/30 09:08:04;;;;;;;;;;;;;;;-144.99;57.58;52615.25;5058875;28;19924;-59
2022/01/30 09:10:30;;;;;;;;;;;;;;;-144.99;58.36;52615.25;5048660;28;20007;-58
2022/01/30 09:12:57;;;;;;;;;;;;;;;-144.99;58.25;52590.78;5052277;28;19974;-60
2022/01/30 09:15:23;;;;;;;;;;;;;;;-144.99;58.92;52639.69;5055280;28;19974;-59
2022/01/30 09:17:51;;;;;;;;;;;;;;;-144.99;58.90;52641.72;5054725;28;19924;-59
2022/01/30 09:20:28;;;;;;;;;;;;;;;-144.99;59.60;52598.94;5054296;28;20431;-59
2022/01/30 09:22:54;;;;;;;;;;;;;;;-144.99;59.28;52590.78;5054209;28;19971;-60
2022/01/30 09:25:21;;;;;;;;;;;;;;;-144.99;59.27;52623.38;5053872;28;19963;-60
2022/01/30 09:27:47;;;;;;;;;;;;;;;-144.99;59.87;52590.78;5053526;28;19925;-59
2022/01/30 09:30:13;;;;;;;;;;;;;;;-144.99;58.68;52647.84;5052361;28;20000;-60
2022/01/30 09:32:40;;;;;;;;;;;;;;;-144.99;57.53;52653.97;5052620;28;20183;-60
2022/01/30 09:35:07;;;;;;;;;;;;;;;-144.99;57.10;52615.25;5052021;28;19986;-60
2022/01/30 09:37:35;;;;;;;;;;;;;;;-144.99;56.90;52631.53;5052796;28;19921;-60
2022/01/30 09:40:01;;;;;;;;;;;;;;;-144.99;56.96;52615.25;5052031;28;20416;-59
2022/01/30 09:42:28;;;;;;;;;;;;;;;-144.99;56.56;52629.50;5052445;28;19920;-59
2022/01/30 09:44:58;;;;;;;;;;;;;;;-144.99;56.17;52619.31;5051596;28;19971;-60
2022/01/30 09:47:24;;;;;;;;;;;;;;;-144.99;56.16;52639.69;5049919;28;20035;-58
2022/01/30 09:49:51;;;;;;;;;;;;;;;-144.99;56.52;52625.44;5051825;28;19947;-58
2022/01/30 09:52:18;;;;;;;;;;;;;;;-144.99;55.75;52566.31;5052572;28;19924;-59
2022/01/30 09:54:47;;;;;;;;;;;;;;;-144.99;56.03;52623.38;5052641;28;19921;-58
2022/01/30 09:57:14;;;;;;;;;;;;;;;-144.99;56.47;52613.19;5052384;28;19928;-58
2022/01/30 09:59:41;;;;;;;;;;;;;;;-144.99;56.20;52647.84;5051985;28;19924;-59
2022/01/30 10:02:08;;;;;;;;;;;;;;;-144.99;56.14;52600.97;5052315;28;19920;-59
2022/01/30 10:04:35;;;;;;;;;;;;;;;-144.99;56.08;52641.72;5051584;28;19925;-60
2022/01/30 10:07:08;;;;;;;;;;;;;;;-144.99;56.31;52633.59;5052017;28;20344;-59
2022/01/30 10:09:37;;;;;;;;;;;;;;;-144.99;56.65;52615.25;5051675;28;20011;-59
2022/01/30 10:12:13;;;;;;;;;;;;;;;-144.99;56.85;52613.19;5051383;28;19921;-59
2022/01/30 10:14:50;;;;;;;;;;;;;;;-144.99;57.78;52635.63;5051305;28;20028;-61
2022/01/30 10:17:24;;;;;;;;;;;;;;;-144.99;57.06;52615.25;5051742;28;20357;-61
2022/01/30 10:19:59;;;;;;;;;;;;;;;-144.99;55.86;52596.88;5051042;28;19924;-59
2022/01/30 10:22:25;;;;;;;;;;;;;;;-144.99;56.60;52578.53;5051086;28;20342;-58
2022/01/30 10:24:52;;;;;;;;;;;;;;;-144.99;55.64;52584.66;5050624;28;20366;-58
2022/01/30 10:27:21;;;;;;;;;;;;;;;-144.99;54.44;52550.00;5052321;28;19928;-59
2022/01/30 10:29:55;;;;;;;;;;;;;;;-144.99;52.79;52582.63;5051499;28;20393;-58
2022/01/30 10:32:21;;;;;;;;;;;;;;;-144.99;52.89;52594.84;5052143;28;19953;-60
2022/01/30 10:34:57;;;;;;;;;;;;;;;-144.99;53.09;52574.47;5051276;28;19932;-59
2022/01/30 10:37:24;;;;;;;;;;;;;;;-144.99;51.92;52562.25;5051322;28;19921;-59
2022/01/30 10:40:04;;;;;;;;;;;;;;;-144.99;51.21;52580.59;5051257;28;19925;-59
2022/01/30 10:42:39;;;;;;;;;;;;;;;-144.99;50.69;52582.63;5051149;28;19948;-60
2022/01/30 10:45:06;;;;;;;;;;;;;;;-144.99;50.96;52550.00;5050337;28;19924;-60
2022/01/30 10:47:35;;;;;;;;;;;;;;;-144.99;50.71;52568.34;5051654;28;19920;-61
2022/01/30 10:50:01;;;;;;;;;;;;;;;-144.99;50.55;52603.00;5050874;28;19928;-60
2022/01/30 10:52:28;;;;;;;;;;;;;;;-144.99;50.80;52594.84;5051042;28;19927;-61
2022/01/30 10:55:03;;;;;;;;;;;;;;;-144.99;49.74;52564.28;5051220;28;19974;-59
2022/01/30 10:57:31;;;;;;;;;;;;;;;-144.99;48.60;52550.00;5050768;28;19924;-63
2022/01/30 10:59:59;;;;;;;;;;;;;;;-144.99;48.82;52568.34;5051250;28;19927;-62
2022/01/30 11:02:26;;;;;;;;;;;;;;;-144.99;48.73;52582.63;5051107;28;20030;-61
2022/01/30 11:05:06;;;;;;;;;;;;;;;-144.99;49.71;52615.25;5050715;28;20417;-61
2022/01/30 11:07:35;;;;;;;;;;;;;;;-144.99;50.81;52598.94;5051574;28;19927;-60
2022/01/30 11:10:07;;;;;;;;;;;;;;;-144.99;51.82;52603.00;5047917;28;20412;-60
2022/01/30 11:12:41;;;;;;;;;;;;;;;-144.99;52.33;52639.69;5051448;28;19920;-60
2022/01/30 11:15:23;;;;;;;;;;;;;;;-144.99;53.32;52611.16;5050414;28;20377;-60
2022/01/30 11:17:58;;;;;;;;;;;;;;;-144.99;52.03;52623.38;5050862;28;19978;-61
2022/01/30 11:20:24;;;;;;;;;;;;;;;-144.99;51.68;52598.94;5048154;28;19921;-60
2022/01/30 11:22:58;;;;;;;;;;;;;;;-144.99;50.47;52570.38;5050892;28;19921;-60
2022/01/30 11:25:33;;;;;;;;;;;;;;;-144.99;49.08;52603.00;5050446;28;19920;-60
2022/01/30 11:28:01;;;;;;;;;;;;;;;-144.99;49.42;52562.25;5050854;28;19931;-60
2022/01/30 11:30:29;;;;;;;;;;;;;;;-144.99;47.50;52566.31;5050370;28;19920;-60
2022/01/30 11:32:56;;;;;;;;;;;;;;;-144.99;46.95;52568.34;5050186;28;19975;-60
2022/01/30 11:35:22;;;;;;;;;;;;;;;-144.99;47.02;52550.00;5049896;28;19967;-61
2022/01/30 11:37:49;;;;;;;;;;;;;;;-144.99;47.12;52596.88;5050386;28;19928;-60
2022/01/30 11:40:17;;;;;;;;;;;;;;;-144.99;47.38;52586.69;5050623;28;20299;-61
2022/01/30 11:42:46;;;;;;;;;;;;;;;-144.99;47.73;52570.38;5050672;28;19921;-61
2022/01/30 11:45:17;;;;;;;;;;;;;;;-144.99;48.79;52558.16;5050067;28;19920;-59
2022/01/30 11:47:46;;;;;;;;;;;;;;;-144.99;48.75;52603.00;5049257;28;19920;-61
2022/01/30 11:50:13;;;;;;;;;;;;;;;-144.99;49.44;52578.53;5051409;28;19921;-59
2022/01/30 11:52:47;;;;;;;;;;;;;;;-144.99;48.57;52576.50;5050208;28;20034;-60
2022/01/30 11:55:28;;;;;;;;;;;;;;;-144.99;49.18;52611.16;5049810;28;19928;-60
2022/01/30 11:57:55;;;;;;;;;;;;;;;-144.99;49.47;52635.63;5029459;28;19928;-59
2022/01/30 12:00:34;;;;;;;;;;;;;;;-144.99;50.27;52607.09;5049717;28;20285;-63
2022/01/30 12:03:16;;;;;;;;;;;;;;;-144.99;52.34;52615.25;5049568;28;19956;-60
2022/01/30 12:05:43;;;;;;;;;;;;;;;-144.99;51.58;52596.88;5048440;28;19982;-60
2022/01/30 12:08:36;;;;;;;;;;;;;;;-144.99;52.04;52607.09;5049926;28;20167;-59
2022/01/30 12:11:22;;;;;;;;;;;;;;;-144.99;53.11;52676.38;5048559;28;19920;-59
2022/01/30 12:13:49;;;;;;;;;;;;;;;-144.99;53.33;52656.00;5046938;28;19921;-61
2022/01/30 12:16:33;;;;;;;;;;;;;;;-144.99;53.06;52645.81;5049190;28;20076;-59
2022/01/30 12:18:59;;;;;;;;;;;;;;;-144.99;53.45;52647.84;5049761;28;19928;-60
2022/01/30 12:21:28;;;;;;;;;;;;;;;-144.99;53.50;52584.66;5049701;28;19920;-59
2022/01/30 12:23:54;;;;;;;;;;;;;;;-144.99;54.75;52647.84;5049383;28;19921;-59
2022/01/30 12:26:20;;;;;;;;;;;;;;;-144.99;54.38;52647.84;5049534;28;19951;-61
2022/01/30 12:28:48;;;;;;;;;;;;;;;-144.99;54.61;52643.78;5049241;28;20099;-58
2022/01/30 12:31:32;;;;;;;;;;;;;;;-144.99;55.30;52623.38;5049333;28;20191;-61
2022/01/30 12:33:58;;;;;;;;;;;;;;;-144.99;55.21;52603.00;5049473;28;19927;-59
2022/01/30 12:36:25;;;;;;;;;;;;;;;-144.99;55.68;52635.63;5048850;28;19921;-60
2022/01/30 12:38:57;;;;;;;;;;;;;;;-144.99;55.32;52623.38;5049216;28;19928;-60
2022/01/30 12:41:24;;;;;;;;;;;;;;;-144.99;55.36;52627.47;5049333;28;20320;-58
2022/01/30 12:43:55;;;;;;;;;;;;;;;-144.99;55.22;52647.84;5049253;28;20051;-61
2022/01/30 12:46:23;;;;;;;;;;;;;;;-144.99;55.59;52596.88;5049458;28;19943;-59
2022/01/30 12:48:59;;;;;;;;;;;;;;;-144.99;55.54;52639.69;5053377;28;19995;-59
2022/01/30 12:51:26;;;;;;;;;;;;;;;-144.99;56.04;52611.16;5053302;28;19928;-58
2022/01/30 12:53:55;;;;;;;;;;;;;;;-144.99;56.11;52627.47;5053419;28;19927;-61
2022/01/30 12:56:23;;;;;;;;;;;;;;;-144.99;55.80;52627.47;5053441;28;20392;-60
2022/01/30 12:58:50;;;;;;;;;;;;;;;-144.99;54.56;52594.84;5053206;28;19929;-60
2022/01/30 13:01:16;;;;;;;;;;;;;;;-144.99;53.31;52629.50;5052901;28;19921;-62
2022/01/30 13:03:43;;;;;;;;;;;;;;;-144.99;52.09;52619.31;5052301;28;19921;-60
2022/01/30 13:06:10;;;;;;;;;;;;;;;-144.99;50.84;52635.63;5053113;28;19920;-60
2022/01/30 13:08:46;;;;;;;;;;;;;;;-144.99;51.39;52623.38;5052699;28;19920;-60
2022/01/30 13:11:25;;;;;;;;;;;;;;;-144.99;50.71;52590.78;5045221;28;19947;-61
2022/01/30 13:13:56;;;;;;;;;;;;;;;-144.99;50.72;52635.63;5052949;28;20377;-61
2022/01/30 13:16:24;;;;;;;;;;;;;;;-144.99;48.81;52486.81;5052687;28;19931;-60